Time;durP1;ratioP1;P1;durP2;ratioP2;P2;SDS_P1;SDS_P2;PMS_P1;PMS_P2;Temp;Humidity;BMP_temperature;BMP_pressure;BME280_temperature;BME280_humidity;BME280_pressure;Samples;Min_cycle;Max_cycle;Signal;HPM_P1;HPM_P2
2023/08/13 00:02:21;;;;;;;9.73;6.50;;;461.40;2380.80;;;;;;4961417;28;20411;-83
2023/08/13 00:04:47;;;;;;;8.75;6.30;;;461.50;2380.80;;;;;;4973457;28;20031;-82
2023/08/13 00:07:12;;;;;;;12.75;6.50;;;461.30;2380.80;;;;;;4974920;28;20027;-83
2023/08/13 00:09:40;;;;;;;8.10;5.85;;;461.30;2380.80;;;;;;4967472;28;20078;-81
2023/08/13 00:12:06;;;;;;;9.38;5.65;;;461.40;2380.80;;;;;;4966125;28;20034;-81
2023/08/13 00:14:32;;;;;;;8.77;5.95;;;;;;;;;;4973544;28;20023;-82
2023/08/13 00:16:58;;;;;;;7.32;5.32;;;;;;;;;;4963544;28;20043;-80
2023/08/13 00:19:25;;;;;;;10.80;6.03;;;;;;;;;;4969499;28;20030;-82
2023/08/13 00:21:51;;;;;;;10.80;6.40;;;;;;;;;;4973515;28;20030;-83
2023/08/13 00:24:17;;;;;;;10.98;6.32;;;;;;;;;;4973184;28;20023;-82
2023/08/13 00:26:43;;;;;;;12.57;7.10;;;;;;;;;;4972520;28;20028;-81
2023/08/13 00:29:09;;;;;;;11.32;6.43;;;;;;;;;;4972684;28;20030;-81
2023/08/13 00:31:35;;;;;;;9.75;5.70;;;;;;;;;;4959554;28;20018;-80
2023/08/13 00:34:01;;;;;;;11.15;6.07;;;;;;;;;;4972084;28;20027;-83
2023/08/13 00:36:27;;;;;;;8.90;5.93;;;;;;;;;;4974417;28;20592;-83
2023/08/13 00:38:53;;;;;;;9.20;5.47;;;;;;;;;;4972755;28;20431;-83
2023/08/13 00:41:19;;;;;;;7.63;5.82;;;;;;;;;;4972492;28;20031;-84
2023/08/13 00:43:46;;;;;;;6.72;5.40;;;;;;;;;;4972005;28;20054;-82
2023/08/13 00:46:12;;;;;;;9.93;5.90;;;;;;;;;;4966294;28;20030;-82
2023/08/13 00:48:39;;;;;;;7.82;5.68;;;;;;;;;;4968945;28;20023;-80
2023/08/13 00:51:06;;;;;;;9.32;5.53;;;;;;;;;;4973949;28;20050;-83
2023/08/13 00:53:33;;;;;;;7.45;5.78;;;;;;;;;;4974255;28;20387;-83
2023/08/13 00:55:59;;;;;;;10.18;5.45;;;461.40;2380.80;;;;;;4973840;28;20023;-81
2023/08/13 00:58:25;;;;;;;7.80;5.40;;;461.20;2380.80;;;;;;4973947;28;20030;-83
2023/08/13 01:00:52;;;;;;;8.57;5.78;;;461.20;2380.80;;;;;;4972997;28;20459;-82
2023/08/13 01:03:18;;;;;;;8.68;5.57;;;461.20;2380.80;;;;;;4975430;28;20034;-82
2023/08/13 01:05:52;;;;;;;12.98;6.25;;;;;;;;;;4973975;28;20030;-84
2023/08/13 01:08:31;;;;;;;13.23;6.30;;;;;;;;;;4973764;28;20027;-82
2023/08/13 01:11:25;;;;;;;9.40;5.90;;;461.20;2380.80;;;;;;4974056;28;20106;-85
2023/08/13 01:14:23;;;;;;;13.38;6.32;;;461.00;2380.80;;;;;;4973917;28;20124;-84
2023/08/13 01:16:49;;;;;;;11.95;7.65;;;460.80;2380.80;;;;;;4973615;28;20376;-81
2023/08/13 01:19:15;;;;;;;9.57;6.70;;;460.80;2380.80;;;;;;4973924;28;20034;-84
2023/08/13 01:21:41;;;;;;;9.45;6.65;;;436.10;2355.20;;;;;;4973733;28;20023;-83
2023/08/13 01:24:07;;;;;;;13.23;6.55;;;460.80;2380.80;;;;;;4973351;28;20037;-82
2023/08/13 01:26:45;;;;;;;10.43;6.63;;;460.80;2380.80;;;;;;4973663;28;20090;-83
2023/08/13 01:29:33;;;;;;;9.88;5.40;;;460.80;2380.80;;;;;;4973519;28;20023;-82
2023/08/13 01:32:02;;;;;;;10.48;6.50;;;460.80;2380.80;;;;;;4973695;28;20033;-85
2023/08/13 01:34:29;;;;;;;11.20;6.30;;;436.10;2355.20;;;;;;4973837;28;20097;-82
2023/08/13 01:36:56;;;;;;;7.30;5.35;;;436.10;2355.20;;;;;;4973399;28;20027;-83
2023/08/13 01:39:22;;;;;;;8.90;5.90;;;460.80;2380.80;;;;;;4973629;28;20038;-84
2023/08/13 01:41:56;;;;;;;9.63;5.57;;;436.10;2355.20;;;;;;4973795;28;20379;-84
2023/08/13 01:44:22;;;;;;;9.73;5.90;;;436.10;2355.20;;;;;;4973105;28;20051;-83
2023/08/13 01:46:49;;;;;;;10.55;6.00;;;435.90;2355.20;;;;;;4973575;28;20042;-84
2023/08/13 01:49:15;;;;;;;9.35;6.15;;;435.80;2355.20;;;;;;4973490;28;20027;-85
2023/08/13 01:51:41;;;;;;;10.85;6.00;;;;;;;;;;4973264;28;20122;-82
2023/08/13 01:54:07;;;;;;;7.10;5.82;;;;;;;;;;4973559;28;20046;-83
2023/08/13 01:56:33;;;;;;;7.55;5.90;;;;;;;;;;4973304;28;20443;-84
2023/08/13 01:59:00;;;;;;;11.68;6.20;;;;;;;;;;4972507;28;20458;-83
2023/08/13 02:01:26;;;;;;;8.38;6.05;;;;;;;;;;4973156;28;20073;-82
2023/08/13 02:03:52;;;;;;;8.48;6.82;;;;;;;;;;4972737;28;20478;-85
2023/08/13 02:06:18;;;;;;;11.02;5.70;;;;;;;;;;4972539;28;20082;-81
2023/08/13 02:08:44;;;;;;;9.57;6.00;;;;;;;;;;4972747;28;20382;-86
2023/08/13 02:11:10;;;;;;;10.40;6.70;;;435.30;2355.20;;;;;;4973496;28;20035;-82
2023/08/13 02:13:36;;;;;;;10.52;6.72;;;435.30;2355.20;;;;;;4976189;28;20042;-84
2023/08/13 02:16:05;;;;;;;10.60;6.03;;;435.30;2355.20;;;;;;4976563;28;20035;-85
2023/08/13 02:18:31;;;;;;;11.38;7.03;;;435.40;2355.20;;;;;;4995314;28;20051;-84
2023/08/13 02:20:57;;;;;;;9.85;6.18;;;435.60;2355.20;;;;;;4992630;28;20035;-81
2023/08/13 02:23:23;;;;;;;7.85;6.38;;;435.50;2355.20;;;;;;4984940;28;20125;-81
2023/08/13 02:25:50;;;;;;;9.45;6.07;;;435.50;2355.20;;;;;;4982837;28;20092;-82
2023/08/13 02:28:16;;;;;;;7.38;5.70;;;435.50;2355.20;;;;;;4978051;28;20027;-83
2023/08/13 02:30:41;;;;;;;9.05;6.00;;;435.40;2355.20;;;;;;4976103;28;20030;-81
2023/08/13 02:33:07;;;;;;;8.63;6.90;;;435.30;2355.20;;;;;;4976505;28;20347;-82
2023/08/13 02:35:33;;;;;;;7.25;5.78;;;435.30;2355.20;;;;;;4975826;28;20030;-84
2023/08/13 02:37:59;;;;;;;10.82;6.55;;;410.40;2355.20;;;;;;4975670;28;20034;-84
2023/08/13 02:40:25;;;;;;;8.38;6.35;;;;;;;;;;4975463;28;20105;-83
2023/08/13 02:42:50;;;;;;;9.07;5.95;;;410.20;2355.20;;;;;;4974792;28;20026;-82
2023/08/13 02:45:16;;;;;;;7.53;5.70;;;410.40;2355.20;;;;;;4975713;28;20030;-81
2023/08/13 02:47:42;;;;;;;11.10;6.15;;;410.40;2355.20;;;;;;4975372;28;20027;-85
2023/08/13 02:50:09;;;;;;;8.98;6.25;;;435.20;2355.20;;;;;;4976645;28;20461;-82
2023/08/13 02:52:35;;;;;;;7.95;6.25;;;435.20;2355.20;;;;;;4976460;28;20031;-81
2023/08/13 02:55:01;;;;;;;7.80;5.93;;;435.20;2355.20;;;;;;4975318;28;20459;-83
2023/08/13 02:57:27;;;;;;;9.40;6.05;;;435.30;2355.20;;;;;;4975379;28;20050;-82
2023/08/13 02:59:54;;;;;;;8.60;6.10;;;435.20;2355.20;;;;;;4975300;28;20027;-84
2023/08/13 03:02:20;;;;;;;8.38;6.40;;;435.20;2355.20;;;;;;4975054;28;20058;-84
2023/08/13 03:04:45;;;;;;;9.82;5.78;;;435.20;2355.20;;;;;;4975187;28;20467;-81
2023/08/13 03:07:11;;;;;;;8.00;5.93;;;435.30;2355.20;;;;;;4974809;28;20037;-82
2023/08/13 03:09:37;;;;;;;10.60;5.75;;;435.30;2355.20;;;;;;4974989;28;20471;-82
2023/08/13 03:12:03;;;;;;;7.45;5.55;;;435.30;2355.20;;;;;;4974930;28;20027;-86
2023/08/13 03:14:29;;;;;;;9.18;5.80;;;435.30;2355.20;;;;;;4974818;28;20430;-82
2023/08/13 03:16:55;;;;;;;9.15;5.80;;;435.30;2355.20;;;;;;4974936;28;20023;-82
2023/08/13 03:19:21;;;;;;;8.95;5.60;;;435.40;2355.20;;;;;;4974768;28;20031;-82
2023/08/13 03:21:46;;;;;;;8.60;5.68;;;435.30;2355.20;;;;;;4975601;28;20571;-81
2023/08/13 03:24:12;;;;;;;7.43;5.82;;;435.30;2355.20;;;;;;4973884;28;20415;-83
2023/08/13 03:26:38;;;;;;;5.85;5.13;;;435.30;2355.20;;;;;;4974875;28;20030;-83
2023/08/13 03:29:04;;;;;;;7.07;5.90;;;435.40;2355.20;;;;;;4974290;28;20034;-83
2023/08/13 03:31:30;;;;;;;6.93;5.80;;;435.40;2355.20;;;;;;4974706;28;20099;-84
2023/08/13 03:33:55;;;;;;;8.13;5.80;;;435.30;2355.20;;;;;;4974604;28;20109;-82
2023/08/13 03:36:21;;;;;;;10.60;6.07;;;435.20;2355.20;;;;;;4974339;28;20371;-82
2023/08/13 03:38:47;;;;;;;8.45;5.68;;;435.30;2355.20;;;;;;4975914;28;20476;-83
2023/08/13 03:41:13;;;;;;;13.52;5.30;;;435.30;2355.20;;;;;;4974123;28;20101;-83
2023/08/13 03:43:39;;;;;;;8.35;5.97;;;435.30;2355.20;;;;;;4974062;28;20153;-84
2023/08/13 03:46:04;;;;;;;11.27;6.10;;;435.30;2355.20;;;;;;4974253;28;20069;-82
2023/08/13 03:48:30;;;;;;;10.07;5.90;;;435.30;2355.20;;;;;;4974214;28;20027;-86
2023/08/13 03:50:56;;;;;;;7.15;5.78;;;435.30;2355.20;;;;;;4974175;28;20031;-81
2023/08/13 03:53:24;;;;;;;7.22;5.93;;;410.30;2355.20;;;;;;4973925;28;20027;-83
2023/08/13 03:55:51;;;;;;;9.63;6.68;;;410.40;2355.20;;;;;;4974632;28;20105;-82
2023/08/13 03:58:17;;;;;;;7.47;5.57;;;435.20;2355.20;;;;;;4974148;28;20053;-81
2023/08/13 04:00:43;;;;;;;9.38;5.95;;;435.40;2355.20;;;;;;4974083;28;20458;-83
2023/08/13 04:03:09;;;;;;;8.25;6.10;;;435.20;2355.20;;;;;;4973615;28;20467;-84
2023/08/13 04:05:35;;;;;;;7.75;6.00;;;435.30;2355.20;;;;;;4973891;28;20035;-83
2023/08/13 04:08:02;;;;;;;8.75;6.68;;;435.30;2355.20;;;;;;4974028;28;20034;-82
2023/08/13 04:10:28;;;;;;;10.30;6.90;;;435.40;2355.20;;;;;;4975198;28;20065;-82
2023/08/13 04:12:56;;;;;;;10.40;6.53;;;435.40;2355.20;;;;;;4974728;28;20058;-82
2023/08/13 04:15:23;;;;;;;8.65;6.28;;;435.40;2355.20;;;;;;4973734;28;20486;-83
2023/08/13 04:17:49;;;;;;;7.35;5.53;;;435.30;2355.20;;;;;;4973441;28;20039;-84
2023/08/13 04:20:15;;;;;;;9.88;6.13;;;435.30;2355.20;;;;;;4973940;28;20070;-83
2023/08/13 04:22:41;;;;;;;7.80;6.03;;;435.20;2355.20;;;;;;4974423;28;20065;-81
2023/08/13 04:25:09;;;;;;;14.20;6.65;;;435.30;2355.20;;;;;;4973628;28;20493;-82
2023/08/13 04:27:35;;;;;;;7.07;6.38;;;435.40;2355.20;;;;;;4973509;28;20085;-83
2023/08/13 04:30:01;;;;;;;7.60;5.65;;;435.50;2355.20;;;;;;4973531;28;20387;-82
2023/08/13 04:32:27;;;;;;;12.32;6.38;;;435.60;2355.20;;;;;;4974389;28;20022;-83
2023/08/13 04:34:53;;;;;;;8.88;6.35;;;435.60;2355.20;;;;;;4973453;28;20061;-84
2023/08/13 04:37:19;;;;;;;9.93;6.38;;;435.60;2355.20;;;;;;4973367;28;20486;-84
2023/08/13 04:39:44;;;;;;;9.10;6.75;;;435.60;2355.20;;;;;;4973307;28;20471;-81
2023/08/13 04:42:10;;;;;;;11.57;6.15;;;435.60;2355.20;;;;;;4973216;28;20026;-83
2023/08/13 04:44:36;;;;;;;14.00;6.53;;;435.50;2355.20;;;;;;4973428;28;20502;-83
2023/08/13 04:47:02;;;;;;;10.65;6.22;;;435.60;2355.20;;;;;;4973171;28;20034;-83
2023/08/13 04:49:28;;;;;;;12.77;6.07;;;435.50;2355.20;;;;;;4973179;28;20037;-84
2023/08/13 04:51:54;;;;;;;15.98;6.93;;;435.40;2355.20;;;;;;4973151;28;20481;-83
2023/08/13 04:54:20;;;;;;;7.30;5.50;;;435.40;2355.20;;;;;;4973014;28;20093;-82
2023/08/13 04:56:45;;;;;;;11.98;5.90;;;435.60;2355.20;;;;;;4973149;28;20114;-83
2023/08/13 04:59:11;;;;;;;8.70;6.38;;;435.50;2355.20;;;;;;4973007;28;20037;-83
2023/08/13 05:01:37;;;;;;;9.70;6.13;;;435.40;2355.20;;;;;;4973105;28;20065;-82
2023/08/13 05:04:03;;;;;;;10.25;5.93;;;435.60;2355.20;;;;;;4973146;28;20067;-82
2023/08/13 05:06:29;;;;;;;7.95;5.68;;;435.60;2355.20;;;;;;4972978;28;20035;-87
2023/08/13 05:08:55;;;;;;;9.88;6.38;;;435.70;2355.20;;;;;;4973136;28;20351;-81
2023/08/13 05:11:21;;;;;;;11.23;5.57;;;435.80;2355.20;;;;;;4974196;28;20042;-84
2023/08/13 05:13:46;;;;;;;7.93;5.72;;;435.90;2355.20;;;;;;4972878;28;20026;-84
2023/08/13 05:16:12;;;;;;;9.93;5.80;;;435.90;2355.20;;;;;;4973228;28;20422;-83
2023/08/13 05:18:38;;;;;;;7.90;5.90;;;435.70;2355.20;;;;;;4973008;28;20034;-81
2023/08/13 05:21:05;;;;;;;9.57;6.07;;;435.60;2355.20;;;;;;4972733;28;20475;-83
2023/08/13 05:23:31;;;;;;;10.07;5.97;;;435.70;2355.20;;;;;;4972811;28;20035;-84
2023/08/13 05:25:57;;;;;;;8.75;6.07;;;435.80;2355.20;;;;;;4972690;28;20085;-83
2023/08/13 05:28:23;;;;;;;9.45;7.07;;;435.80;2355.20;;;;;;4972682;28;20027;-83
2023/08/13 05:30:48;;;;;;;9.70;6.57;;;435.90;2355.20;;;;;;4972908;28;20031;-82
2023/08/13 05:33:14;;;;;;;13.48;8.20;;;435.90;2355.20;;;;;;4972894;28;20027;-81
2023/08/13 05:35:40;;;;;;;9.98;7.60;;;436.10;2355.20;;;;;;4972727;28;20531;-83
2023/08/13 05:38:06;;;;;;;11.70;7.70;;;436.10;2355.20;;;;;;4972893;28;20027;-82
2023/08/13 05:40:32;;;;;;;11.88;7.82;;;460.80;2380.80;;;;;;4975569;28;20187;-84
2023/08/13 05:42:57;;;;;;;9.02;7.05;;;460.80;2380.80;;;;;;4974352;28;20133;-81
2023/08/13 05:45:23;;;;;;;11.13;7.57;;;436.10;2355.20;;;;;;4976150;28;20469;-82
2023/08/13 05:47:50;;;;;;;9.02;6.32;;;436.10;2355.20;;;;;;5000823;28;20022;-82
2023/08/13 05:50:16;;;;;;;9.95;6.55;;;460.80;2380.80;;;;;;4987001;28;20537;-79
2023/08/13 05:52:42;;;;;;;8.88;6.80;;;461.10;2380.80;;;;;;4985333;28;20125;-80
2023/08/13 05:55:08;;;;;;;9.55;6.57;;;461.00;2380.80;;;;;;4980082;28;20031;-80
2023/08/13 05:57:34;;;;;;;10.13;6.10;;;461.00;2380.80;;;;;;4976605;28;20031;-82
2023/08/13 06:00:00;;;;;;;9.38;5.53;;;461.00;2380.80;;;;;;4976620;28;20101;-81
2023/08/13 06:02:26;;;;;;;9.10;5.85;;;461.10;2380.80;;;;;;4976164;28;20729;-84
2023/08/13 06:04:52;;;;;;;9.32;6.38;;;461.10;2380.80;;;;;;4976166;28;20031;-84
2023/08/13 06:07:18;;;;;;;8.40;5.60;;;461.20;2380.80;;;;;;4976263;28;20034;-81
2023/08/13 06:09:43;;;;;;;9.20;5.78;;;461.30;2380.80;;;;;;4975918;28;20035;-80
2023/08/13 06:12:09;;;;;;;8.88;5.90;;;461.50;2380.80;;;;;;4976256;28;20364;-81
2023/08/13 06:14:35;;;;;;;11.60;5.72;;;461.40;2380.80;;;;;;4975960;28;20037;-79
2023/08/13 06:17:01;;;;;;;8.60;5.70;;;461.50;2380.80;;;;;;4975961;28;20081;-80
2023/08/13 06:19:27;;;;;;;8.05;5.43;;;461.70;2380.80;;;;;;4976025;28;20023;-80
2023/08/13 06:21:53;;;;;;;9.07;5.53;;;461.70;2380.80;;;;;;4975669;28;20450;-82
2023/08/13 06:24:18;;;;;;;8.88;5.65;;;461.70;2380.80;;;;;;4975392;28;20049;-80
2023/08/13 06:26:44;;;;;;;9.88;6.53;;;486.50;2380.80;;;;;;4977362;28;20030;-80
2023/08/13 06:29:10;;;;;;;9.32;5.28;;;486.60;2380.80;;;;;;4975500;28;20042;-81
2023/08/13 06:31:37;;;;;;;7.88;5.45;;;486.60;2380.80;;;;;;4975267;28;20598;-82
2023/08/13 06:34:04;;;;;;;9.38;5.38;;;486.70;2380.80;;;;;;4975973;28;20122;-80
2023/08/13 06:36:30;;;;;;;7.78;5.28;;;486.80;2380.80;;;;;;4975468;28;20474;-81
2023/08/13 06:38:55;;;;;;;7.15;5.38;;;486.90;2380.80;;;;;;4975094;28;20034;-83
2023/08/13 06:41:21;;;;;;;6.40;4.50;;;487.00;2380.80;;;;;;4975335;28;20027;-82
2023/08/13 06:43:47;;;;;;;6.65;5.43;;;487.10;2380.80;;;;;;4975092;28;20145;-78
2023/08/13 06:46:13;;;;;;;6.95;4.93;;;487.20;2380.80;;;;;;4974768;28;20027;-79
2023/08/13 06:48:38;;;;;;;8.77;5.40;;;512.10;2380.80;;;;;;4975320;28;20170;-82
2023/08/13 06:51:04;;;;;;;8.25;5.30;;;512.10;2380.80;;;;;;4975064;28;20034;-78
2023/08/13 06:53:30;;;;;;;7.97;5.00;;;512.10;2380.80;;;;;;4975060;28;20529;-81
2023/08/13 06:56:00;;;;;;;8.30;5.45;;;512.30;2380.80;;;;;;4975293;28;20121;-81
2023/08/13 06:58:26;;;;;;;7.03;4.47;;;512.20;2380.80;;;;;;4974913;28;20085;-81
2023/08/13 07:00:52;;;;;;;8.65;5.78;;;512.60;2380.80;;;;;;4976073;28;20026;-81
2023/08/13 07:03:18;;;;;;;8.77;4.43;;;512.60;2380.80;;;;;;4975064;28;20046;-81
2023/08/13 07:05:44;;;;;;;7.80;5.03;;;512.50;2380.80;;;;;;4974826;28;20066;-81
2023/08/13 07:08:10;;;;;;;7.28;4.88;;;512.90;2380.80;;;;;;4975174;28;20078;-81
2023/08/13 07:10:36;;;;;;;9.70;5.07;;;537.70;2406.40;;;;;;4974987;28;20050;-81
2023/08/13 07:13:02;;;;;;;9.20;4.45;;;537.80;2406.40;;;;;;4974701;28;20466;-81
2023/08/13 07:15:28;;;;;;;6.00;4.63;;;538.00;2406.40;;;;;;4976577;28;20073;-81
2023/08/13 07:17:53;;;;;;;11.25;4.82;;;537.80;2406.40;;;;;;4974853;28;20410;-81
2023/08/13 07:20:20;;;;;;;9.27;4.25;;;;;;;;;;4975490;28;20130;-81
2023/08/13 07:22:47;;;;;;;7.68;4.78;;;538.40;2406.40;;;;;;4974541;28;20363;-80
2023/08/13 07:25:13;;;;;;;8.00;4.80;;;538.50;2406.40;;;;;;4975718;28;20030;-81
2023/08/13 07:27:42;;;;;;;12.20;4.47;;;563.40;2432.00;;;;;;4974412;28;20482;-81
2023/08/13 07:30:10;;;;;;;8.82;4.68;;;563.40;2432.00;;;;;;4974752;28;20031;-81
2023/08/13 07:32:38;;;;;;;6.90;4.68;;;563.20;2432.00;;;;;;4974400;28;20030;-81
2023/08/13 07:35:06;;;;;;;6.38;4.38;;;563.50;2432.00;;;;;;4975282;28;20034;-80
2023/08/13 07:37:32;;;;;;;7.18;4.30;;;;;;;;;;4974393;28;20038;-83
2023/08/13 07:39:59;;;;;;;6.05;4.22;;;;;;;;;;4974719;28;20038;-82
2023/08/13 07:42:25;;;;;;;8.90;4.28;;;;;;;;;;4974075;28;20065;-79
2023/08/13 07:44:51;;;;;;;6.38;3.92;;;564.00;2432.00;;;;;;4974237;28;20047;-81
2023/08/13 07:47:17;;;;;;;8.48;4.82;;;563.90;2432.00;;;;;;4974126;28;20027;-80
2023/08/13 07:49:43;;;;;;;6.47;4.53;;;564.00;2432.00;;;;;;4974403;28;20479;-82
2023/08/13 07:52:09;;;;;;;7.80;3.92;;;588.80;2432.00;;;;;;4974347;28;20030;-82
2023/08/13 07:54:38;;;;;;;9.57;3.90;;;588.90;2432.00;;;;;;4973999;28;20027;-81
2023/08/13 07:57:05;;;;;;;7.93;4.38;;;589.10;2432.00;;;;;;4974015;28;20037;-81
2023/08/13 07:59:30;;;;;;;7.35;5.18;;;589.20;2432.00;;;;;;4974137;28;20427;-80
2023/08/13 08:01:56;;;;;;;8.70;4.07;;;589.30;2432.00;;;;;;4973913;28;20027;-83
2023/08/13 08:04:22;;;;;;;9.15;4.75;;;589.60;2432.00;;;;;;4974000;28;20039;-82
2023/08/13 08:06:48;;;;;;;7.22;4.60;;;589.60;2432.00;;;;;;4975121;28;20023;-80
2023/08/13 08:09:14;;;;;;;7.88;5.13;;;;;;;;;;4973139;28;20023;-82
2023/08/13 08:11:40;;;;;;;8.60;6.00;;;;;;;;;;4973992;28;20031;-81
2023/08/13 08:14:06;;;;;;;8.38;6.00;;;;;;;;;;4975367;28;20031;-81
2023/08/13 08:16:33;;;;;;;6.30;4.72;;;;;;;;;;4973665;28;20050;-80
2023/08/13 08:18:59;;;;;;;8.52;3.92;;;;;;;;;;4974945;28;20042;-81
2023/08/13 08:21:26;;;;;;;6.40;3.80;;;;;;;;;;4973466;28;20053;-82
2023/08/13 08:23:52;;;;;;;10.93;6.43;;;;;;;;;;4973681;28;20038;-81
2023/08/13 08:26:18;;;;;;;9.32;5.28;;;;;;;;;;4973988;28;20482;-83
2023/08/13 08:28:44;;;;;;;5.55;3.92;;;;;;;;;;4974588;28;20088;-81
2023/08/13 08:31:10;;;;;;;7.15;4.38;;;640.20;2380.80;;;;;;4974027;28;20033;-81
2023/08/13 08:33:35;;;;;;;7.35;4.70;;;640.20;2406.40;;;;;;4978568;28;20113;-80
2023/08/13 08:36:01;;;;;;;7.32;3.65;;;640.20;2406.40;;;;;;4977581;28;20459;-79
2023/08/13 08:38:27;;;;;;;7.20;3.60;;;640.20;2380.80;;;;;;4976247;28;20085;-80
2023/08/13 08:40:53;;;;;;;7.07;4.25;;;640.20;2355.20;;;;;;4973452;28;20026;-80
2023/08/13 08:43:19;;;;;;;7.15;4.15;;;640.50;2380.80;;;;;;4972969;28;20059;-80
2023/08/13 08:45:45;;;;;;;7.53;4.00;;;640.50;2406.40;;;;;;4973418;28;20526;-79
2023/08/13 08:48:12;;;;;;;6.25;4.00;;;640.90;2380.80;;;;;;4973224;28;20035;-81
2023/08/13 08:50:38;;;;;;;5.72;4.40;;;640.90;2355.20;;;;;;4973109;28;20029;-81
2023/08/13 08:53:04;;;;;;;6.00;4.53;;;640.90;2380.80;;;;;;4973363;28;20470;-79
2023/08/13 08:55:31;;;;;;;6.13;4.32;;;;;;;;;;4973756;28;20103;-82
2023/08/13 08:57:57;;;;;;;5.70;3.92;;;;;;;;;;4974447;28;20027;-81
2023/08/13 09:00:23;;;;;;;6.72;4.30;;;;;;;;;;4976268;28;20483;-83
2023/08/13 09:02:50;;;;;;;4.60;3.40;;;;;;;;;;4973311;28;20547;-81
2023/08/13 09:05:17;;;;;;;6.72;3.65;;;;;;;;;;4973384;28;20030;-87
2023/08/13 09:07:43;;;;;;;11.90;4.85;;;;;;;;;;4973300;28;20023;-81
2023/08/13 09:10:09;;;;;;;7.70;4.03;;;;;;;;;;4973586;28;20038;-82
2023/08/13 09:12:36;;;;;;;7.35;3.75;;;;;;;;;;4973151;28;20026;-83
2023/08/13 09:15:12;;;;;;;10.15;6.60;;;;;;;;;;4973446;28;20030;-84
2023/08/13 09:17:38;;;;;;;6.43;4.20;;;691.20;2278.40;;;;;;4973457;28;20375;-83
2023/08/13 09:20:18;;;;;;;5.40;4.07;;;666.00;2278.40;;;;;;4974600;28;20027;-83
2023/08/13 09:22:50;;;;;;;8.75;3.95;;;691.30;2252.80;;;;;;4978130;28;20027;-84
2023/08/13 09:25:17;;;;;;;4.70;3.80;;;691.40;2278.40;;;;;;4977289;28;20030;-84
2023/08/13 09:27:44;;;;;;;5.35;3.90;;;;;;;;;;4977470;28;20110;-84
2023/08/13 09:30:12;;;;;;;6.95;4.05;;;;;;;;;;4978467;28;20479;-83
2023/08/13 09:32:38;;;;;;;7.32;3.97;;;;;;;;;;4976872;28;20018;-86
2023/08/13 09:35:04;;;;;;;5.78;3.92;;;;;;;;;;4978153;28;20046;-84
2023/08/13 09:37:31;;;;;;;5.50;3.70;;;;;;;;;;4976070;28;20026;-83
2023/08/13 09:39:57;;;;;;;5.32;3.38;;;;;;;;;;4976281;28;20442;-84
2023/08/13 09:42:23;;;;;;;7.32;4.07;;;;;;;;;;4976487;28;20067;-85
2023/08/13 09:44:56;;;;;;;6.90;3.83;;;;;;;;;;4976182;28;20054;-85
2023/08/13 09:47:25;;;;;;;5.63;3.63;;;;;;;;;;4975064;28;20049;-86
2023/08/13 09:49:51;;;;;;;9.48;6.53;;;;;;;;;;4977575;28;20026;-85
2023/08/13 09:52:25;;;;;;;8.77;4.13;;;716.90;2201.60;;;;;;4976467;28;20031;-87
2023/08/13 09:55:01;;;;;;;5.32;3.90;;;717.20;2227.20;;;;;;4976421;28;20088;-85
2023/08/13 09:57:31;;;;;;;6.78;3.63;;;717.40;2201.60;;;;;;4977861;28;20027;-84
2023/08/13 09:59:58;;;;;;;11.95;4.90;;;717.50;2176.00;;;;;;4977659;28;20050;-85
2023/08/13 10:02:24;;;;;;;7.95;4.25;;;717.50;2150.40;;;;;;4975875;28;20117;-87
2023/08/13 10:04:52;;;;;;;6.53;3.53;;;717.70;2176.00;;;;;;4976594;28;20130;-86
2023/08/13 10:07:19;;;;;;;9.40;4.07;;;742.40;2176.00;;;;;;4976775;28;20057;-82
2023/08/13 10:09:46;;;;;;;5.28;4.10;;;717.70;2176.00;;;;;;4976371;28;20038;-81
2023/08/13 10:12:12;;;;;;;10.70;5.10;;;742.60;2150.40;;;;;;4960398;28;20066;-83
2023/08/13 10:14:38;;;;;;;5.93;3.50;;;742.80;2150.40;;;;;;4976656;28;20037;-86
2023/08/13 10:17:06;;;;;;;6.60;3.70;;;742.70;2150.40;;;;;;4976173;28;20459;-81
2023/08/13 10:19:38;;;;;;;6.93;3.38;;;743.00;2124.80;;;;;;4976235;28;20061;-85
2023/08/13 10:22:04;;;;;;;;;;;743.10;2150.40;;;;;;4976458;28;20443;-87
2023/08/13 10:24:30;;;;;;;5.65;3.38;;;743.20;2073.60;;;;;;4976150;28;19914;-83
2023/08/13 10:26:59;;;;;;;4.65;3.70;;;743.00;2099.20;;;;;;4977498;28;20042;-84
2023/08/13 10:29:34;;;;;;;4.65;3.08;;;743.00;2099.20;;;;;;4975968;28;20031;-83
2023/08/13 10:32:01;;;;;;;9.43;5.88;;;743.10;2099.20;;;;;;4976964;28;20034;-84
2023/08/13 10:34:40;;;;;;;7.30;4.93;;;;;;;;;;4975883;28;20038;-85
2023/08/13 10:37:17;;;;;;;6.40;3.42;;;;;;;;;;4975509;28;20039;-87
2023/08/13 10:39:45;;;;;;;10.32;4.85;;;;;;;;;;4976055;28;20110;-87
2023/08/13 10:42:36;;;;;;;8.82;4.30;;;768.50;1996.80;;;;;;4975996;28;20026;-85
2023/08/13 10:45:04;;;;;;;6.93;4.45;;;768.50;1996.80;;;;;;4975956;28;20141;-84
2023/08/13 10:47:54;;;;;;;6.47;3.97;;;768.70;2022.40;;;;;;4975796;28;20037;-84
2023/08/13 10:50:21;;;;;;;7.93;4.85;;;793.60;2022.40;;;;;;4975308;28;20026;-86
2023/08/13 10:53:08;;;;;;;4.82;3.47;;;;;;;;;;4975867;28;20034;-86
2023/08/13 10:55:36;;;;;;;4.80;3.50;;;;;;;;;;4975274;28;20034;-84
2023/08/13 10:58:02;;;;;;;6.53;3.13;;;;;;;;;;4974622;28;20357;-85
2023/08/13 11:00:29;;;;;;;4.70;3.50;;;;;;;;;;4974232;28;20019;-85
2023/08/13 11:03:14;;;;;;;7.30;4.05;;;;;;;;;;4977077;28;20026;-82
2023/08/13 11:05:41;;;;;;;7.35;4.07;;;;;;;;;;4974728;28;20062;-82
2023/08/13 11:08:07;;;;;;;4.90;3.72;;;;;;;;;;4974720;28;20078;-84
2023/08/13 11:10:34;;;;;;;7.32;3.90;;;;;;;;;;4974581;28;20089;-85
2023/08/13 11:13:00;;;;;;;7.85;3.70;;;;;;;;;;4973691;28;20062;-84
2023/08/13 11:15:29;;;;;;;5.95;3.20;;;;;;;;;;4975211;28;20027;-83
2023/08/13 11:17:55;;;;;;;5.50;4.45;;;;;;;;;;4974875;28;20033;-81
2023/08/13 21:18:58;;;;;;;14.10;10.20;;;;;;;;;;5086805;23;20051;-84
2023/08/13 21:21:24;;;;;;;16.73;11.07;;;;;;;;;;4957841;28;20081;-84
2023/08/13 21:23:50;;;;;;;12.63;10.85;;;;;;;;;;4957853;28;20122;-84
2023/08/13 21:26:16;;;;;;;18.35;10.40;;;;;;;;;;4958096;28;20114;-83
2023/08/13 21:28:42;;;;;;;17.38;10.15;;;;;;;;;;4957484;28;20054;-82
2023/08/13 21:31:11;;;;;;;12.88;10.18;;;;;;;;;;4958211;29;20045;-81
2023/08/13 21:33:38;;;;;;;12.35;9.13;;;;;;;;;;4945915;28;20047;-81
2023/08/13 21:36:04;;;;;;;14.00;9.20;;;;;;;;;;4950361;28;20035;-80
2023/08/13 21:38:30;;;;;;;12.35;9.75;;;;;;;;;;4950552;28;20020;-81
2023/08/13 21:40:56;;;;;;;12.55;8.77;;;;;;;;;;4939861;28;20027;-81
2023/08/13 21:43:22;;;;;;;14.90;10.15;;;;;;;;;;4945375;28;20032;-80
2023/08/13 21:45:49;;;;;;;10.60;8.60;;;;;;;;;;4935139;28;20450;-80
2023/08/13 21:48:15;;;;;;;14.15;8.98;;;;;;;;;;4935636;28;20079;-80
2023/08/13 21:50:41;;;;;;;13.35;9.23;;;;;;;;;;4947571;28;20031;-80
2023/08/13 21:53:07;;;;;;;13.65;8.90;;;;;;;;;;4947833;28;20035;-81
2023/08/13 21:55:34;;;;;;;13.45;9.35;;;;;;;;;;4936145;28;20031;-80
2023/08/13 21:58:00;;;;;;;10.00;8.55;;;;;;;;;;4936756;28;20386;-80
2023/08/13 22:00:26;;;;;;;12.93;8.43;;;;;;;;;;4936612;28;20024;-81
2023/08/13 22:02:53;;;;;;;12.35;9.57;;;;;;;;;;4936070;28;20479;-80
2023/08/13 22:05:19;;;;;;;16.80;9.43;;;;;;;;;;4936887;28;20118;-81
2023/08/13 22:07:46;;;;;;;15.13;9.93;;;;;;;;;;4949679;28;20379;-80
2023/08/13 22:10:12;;;;;;;12.07;9.50;;;;;;;;;;4934648;28;20028;-81
2023/08/13 22:12:38;;;;;;;14.05;9.15;;;;;;;;;;4934559;28;20102;-80
2023/08/13 22:15:05;;;;;;;11.98;8.02;;;;;;;;;;4936940;28;20065;-80
2023/08/13 22:17:31;;;;;;;11.63;8.68;;;;;;;;;;4937160;28;20106;-81
2023/08/13 22:19:57;;;;;;;12.13;9.02;;;;;;;;;;4937068;28;20594;-80
2023/08/13 22:22:24;;;;;;;14.73;9.85;;;;;;;;;;4937524;28;20116;-80
2023/08/13 22:24:50;;;;;;;14.77;9.60;;;;;;;;;;4937927;28;20506;-81
2023/08/13 22:27:16;;;;;;;16.20;12.70;;;;;;;;;;4936037;28;20043;-80
2023/08/13 22:29:42;;;;;;;15.50;11.80;;;;;;;;;;4935614;28;20024;-80
2023/08/13 22:32:08;;;;;;;13.68;10.63;;;;;;;;;;4935950;28;20032;-80
2023/08/13 22:34:35;;;;;;;11.38;9.05;;;;;;;;;;4935827;28;20043;-79
2023/08/13 22:37:01;;;;;;;14.10;8.52;;;;;;;;;;4937414;28;20090;-80
2023/08/13 22:39:28;;;;;;;11.90;8.68;;;;;;;;;;4936336;28;20087;-81
2023/08/13 22:41:54;;;;;;;12.35;7.50;;;;;;;;;;4950795;28;20028;-81
2023/08/13 22:44:21;;;;;;;11.77;8.63;;;;;;;;;;4936410;28;20395;-80
2023/08/13 22:46:47;;;;;;;12.40;8.57;;;;;;;;;;4936206;28;20110;-80
2023/08/13 22:49:14;;;;;;;10.43;8.68;;;;;;;;;;4935342;28;20386;-81
2023/08/13 22:51:40;;;;;;;13.57;9.30;;;;;;;;;;4936392;28;20028;-81
2023/08/13 22:54:06;;;;;;;15.00;10.27;;;;;;;;;;4935912;28;20467;-83
2023/08/13 22:56:32;;;;;;;14.02;8.55;;;;;;;;;;4935290;28;20028;-81
2023/08/13 22:58:59;;;;;;;12.55;8.30;;;;;;;;;;4937311;28;20043;-81
2023/08/13 23:01:25;;;;;;;11.77;9.05;;;;;;;;;;4937468;28;20039;-80